sensor_id;sensor_type;location;lat;lon;timestamp;P1;durP1;ratioP1;P2;durP2;ratioP2
33912;SDS011;20200;52.084;5.224;2023-03-23T00:01:10;18.61;;;10.6;;
33912;SDS011;20200;52.084;5.224;2023-03-23T00:02:49;17.0;;;10.5;;
33912;SDS011;20200;52.084;5.224;2023-03-23T00:04:25;18.91;;;10.21;;
33912;SDS011;20200;52.084;5.224;2023-03-23T00:07:38;17.91;;;9.81;;
33912;SDS011;20200;52.084;5.224;2023-03-23T00:09:14;13.3;;;9.4;;
33912;SDS011;20200;52.084;5.224;2023-03-23T00:10:51;13.8;;;9.31;;
33912;SDS011;20200;52.084;5.224;2023-03-23T00:14:07;17.3;;;9.21;;
33912;SDS011;20200;52.084;5.224;2023-03-23T00:15:45;17.91;;;9.71;;
33912;SDS011;20200;52.084;5.224;2023-03-23T00:17:22;24.0;;;12.5;;
33912;SDS011;20200;52.084;5.224;2023-03-23T00:18:59;16.9;;;9.9;;
33912;SDS011;20200;52.084;5.224;2023-03-23T00:22:15;16.0;;;9.9;;
33912;SDS011;20200;52.084;5.224;2023-03-23T00:23:53;14.0;;;8.6;;
33912;SDS011;20200;52.084;5.224;2023-03-23T00:25:29;15.7;;;9.0;;
33912;SDS011;20200;52.084;5.224;2023-03-23T00:28:41;14.8;;;8.9;;
33912;SDS011;20200;52.084;5.224;2023-03-23T00:30:17;14.0;;;8.6;;
33912;SDS011;20200;52.084;5.224;2023-03-23T00:31:53;14.8;;;8.4;;
33912;SDS011;20200;52.084;5.224;2023-03-23T00:33:30;15.4;;;8.81;;
33912;SDS011;20200;52.084;5.224;2023-03-23T00:36:45;14.3;;;8.71;;
33912;SDS011;20200;52.084;5.224;2023-03-23T00:38:22;13.6;;;7.9;;
33912;SDS011;20200;52.084;5.224;2023-03-23T00:40:00;14.1;;;8.4;;
33912;SDS011;20200;52.084;5.224;2023-03-23T00:43:12;14.0;;;8.2;;
33912;SDS011;20200;52.084;5.224;2023-03-23T00:44:48;12.6;;;8.4;;
33912;SDS011;20200;52.084;5.224;2023-03-23T00:46:25;14.3;;;7.8;;
33912;SDS011;20200;52.084;5.224;2023-03-23T00:49:37;14.1;;;7.5;;
33912;SDS011;20200;52.084;5.224;2023-03-23T00:51:14;13.8;;;7.7;;
33912;SDS011;20200;52.084;5.224;2023-03-23T00:52:50;12.1;;;7.2;;
33912;SDS011;20200;52.084;5.224;2023-03-23T00:54:27;11.8;;;7.6;;
33912;SDS011;20200;52.084;5.224;2023-03-23T00:57:41;13.0;;;7.5;;
33912;SDS011;20200;52.084;5.224;2023-03-23T00:59:17;13.0;;;7.7;;
33912;SDS011;20200;52.084;5.224;2023-03-23T01:00:54;14.3;;;6.8;;
33912;SDS011;20200;52.084;5.224;2023-03-23T01:04:08;11.7;;;6.3;;
33912;SDS011;20200;52.084;5.224;2023-03-23T01:05:45;11.8;;;7.0;;
33912;SDS011;20200;52.084;5.224;2023-03-23T01:07:21;11.0;;;6.1;;
33912;SDS011;20200;52.084;5.224;2023-03-23T01:10:35;10.4;;;6.0;;
33912;SDS011;20200;52.084;5.224;2023-03-23T01:12:11;11.2;;;6.1;;
33912;SDS011;20200;52.084;5.224;2023-03-23T01:13:47;12.1;;;6.4;;
33912;SDS011;20200;52.084;5.224;2023-03-23T01:15:23;12.1;;;6.4;;
33912;SDS011;20200;52.084;5.224;2023-03-23T01:18:35;13.1;;;6.4;;
33912;SDS011;20200;52.084;5.224;2023-03-23T01:20:13;12.9;;;6.5;;
33912;SDS011;20200;52.084;5.224;2023-03-23T01:21:50;12.4;;;6.4;;
33912;SDS011;20200;52.084;5.224;2023-03-23T01:25:03;10.7;;;6.3;;
33912;SDS011;20200;52.084;5.224;2023-03-23T01:26:40;11.2;;;6.5;;
33912;SDS011;20200;52.084;5.224;2023-03-23T01:28:16;10.8;;;6.1;;
33912;SDS011;20200;52.084;5.224;2023-03-23T01:31:28;12.0;;;6.5;;
33912;SDS011;20200;52.084;5.224;2023-03-23T01:33:04;11.2;;;6.4;;
33912;SDS011;20200;52.084;5.224;2023-03-23T01:34:40;13.8;;;6.9;;
33912;SDS011;20200;52.084;5.224;2023-03-23T01:36:17;10.1;;;6.8;;
33912;SDS011;20200;52.084;5.224;2023-03-23T01:39:33;11.7;;;6.7;;
33912;SDS011;20200;52.084;5.224;2023-03-23T01:41:11;11.5;;;6.6;;
33912;SDS011;20200;52.084;5.224;2023-03-23T01:42:50;9.81;;;6.4;;
33912;SDS011;20200;52.084;5.224;2023-03-23T01:47:01;8.9;;;6.0;;
33912;SDS011;20200;52.084;5.224;2023-03-23T01:50:15;11.0;;;6.4;;
33912;SDS011;20200;52.084;5.224;2023-03-23T01:51:53;9.81;;;6.5;;
33912;SDS011;20200;52.084;5.224;2023-03-23T01:53:36;10.8;;;6.6;;
33912;SDS011;20200;52.084;5.224;2023-03-23T01:55:16;9.31;;;6.4;;
33912;SDS011;20200;52.084;5.224;2023-03-23T01:58:34;9.31;;;6.3;;
33912;SDS011;20200;52.084;5.224;2023-03-23T02:00:13;10.7;;;6.7;;
33912;SDS011;20200;52.084;5.224;2023-03-23T02:01:50;11.2;;;7.0;;
33912;SDS011;20200;52.084;5.224;2023-03-23T02:03:28;11.2;;;7.3;;
33912;SDS011;20200;52.084;5.224;2023-03-23T02:06:49;12.4;;;7.1;;
33912;SDS011;20200;52.084;5.224;2023-03-23T02:08:26;9.9;;;7.0;;
33912;SDS011;20200;52.084;5.224;2023-03-23T02:10:04;12.5;;;7.3;;
33912;SDS011;20200;52.084;5.224;2023-03-23T02:13:17;13.7;;;7.5;;
33912;SDS011;20200;52.084;5.224;2023-03-23T02:14:54;9.71;;;6.9;;
33912;SDS011;20200;52.084;5.224;2023-03-23T02:16:33;10.4;;;7.2;;
33912;SDS011;20200;52.084;5.224;2023-03-23T02:18:21;11.8;;;7.8;;
33912;SDS011;20200;52.084;5.224;2023-03-23T02:20:16;13.0;;;7.9;;
33912;SDS011;20200;52.084;5.224;2023-03-23T02:25:32;13.3;;;7.7;;
33912;SDS011;20200;52.084;5.224;2023-03-23T02:27:36;10.0;;;7.7;;
33912;SDS011;20200;52.084;5.224;2023-03-23T02:30:11;12.6;;;7.7;;
33912;SDS011;20200;52.084;5.224;2023-03-23T02:32:04;10.6;;;7.4;;
33912;SDS011;20200;52.084;5.224;2023-03-23T02:33:50;11.1;;;7.3;;
33912;SDS011;20200;52.084;5.224;2023-03-23T02:35:33;10.7;;;7.3;;
33912;SDS011;20200;52.084;5.224;2023-03-23T02:37:13;9.21;;;6.5;;
33912;SDS011;20200;52.084;5.224;2023-03-23T02:40:41;7.8;;;6.3;;
33912;SDS011;20200;52.084;5.224;2023-03-23T02:42:21;9.5;;;6.5;;
33912;SDS011;20200;52.084;5.224;2023-03-23T02:44:03;9.31;;;6.6;;
33912;SDS011;20200;52.084;5.224;2023-03-23T02:45:41;10.1;;;6.3;;
33912;SDS011;20200;52.084;5.224;2023-03-23T02:49:00;8.81;;;5.9;;
33912;SDS011;20200;52.084;5.224;2023-03-23T02:50:41;9.9;;;6.1;;
33912;SDS011;20200;52.084;5.224;2023-03-23T02:52:22;10.5;;;5.9;;
33912;SDS011;20200;52.084;5.224;2023-03-23T02:54:02;8.31;;;5.11;;
33912;SDS011;20200;52.084;5.224;2023-03-23T02:57:20;8.1;;;5.4;;
33912;SDS011;20200;52.084;5.224;2023-03-23T02:58:58;7.6;;;5.2;;
33912;SDS011;20200;52.084;5.224;2023-03-23T03:00:35;8.31;;;5.3;;
33912;SDS011;20200;52.084;5.224;2023-03-23T03:02:12;8.5;;;5.0;;
33912;SDS011;20200;52.084;5.224;2023-03-23T03:05:35;8.6;;;4.91;;
33912;SDS011;20200;52.084;5.224;2023-03-23T03:09:24;13.1;;;5.3;;
33912;SDS011;20200;52.084;5.224;2023-03-23T03:11:10;10.4;;;4.91;;
33912;SDS011;20200;52.084;5.224;2023-03-23T03:12:51;10.0;;;4.5;;
33912;SDS011;20200;52.084;5.224;2023-03-23T03:16:19;10.0;;;4.7;;
33912;SDS011;20200;52.084;5.224;2023-03-23T03:18:04;9.6;;;4.2;;
33912;SDS011;20200;52.084;5.224;2023-03-23T03:19:48;11.3;;;4.7;;
33912;SDS011;20200;52.084;5.224;2023-03-23T03:21:29;11.0;;;4.41;;
33912;SDS011;20200;52.084;5.224;2023-03-23T03:23:10;9.31;;;4.0;;
33912;SDS011;20200;52.084;5.224;2023-03-23T03:26:27;11.0;;;3.9;;
33912;SDS011;20200;52.084;5.224;2023-03-23T03:28:06;10.9;;;3.9;;
33912;SDS011;20200;52.084;5.224;2023-03-23T03:29:42;11.1;;;4.1;;
33912;SDS011;20200;52.084;5.224;2023-03-23T03:31:22;9.9;;;4.1;;
33912;SDS011;20200;52.084;5.224;2023-03-23T03:34:40;8.71;;;3.8;;
33912;SDS011;20200;52.084;5.224;2023-03-23T03:36:18;9.21;;;4.0;;
33912;SDS011;20200;52.084;5.224;2023-03-23T03:37:57;9.81;;;3.9;;
33912;SDS011;20200;52.084;5.224;2023-03-23T03:39:41;12.3;;;4.2;;
33912;SDS011;20200;52.084;5.224;2023-03-23T03:42:55;10.0;;;3.8;;
33912;SDS011;20200;52.084;5.224;2023-03-23T03:44:31;11.7;;;3.8;;
33912;SDS011;20200;52.084;5.224;2023-03-23T03:46:08;10.21;;;4.0;;
33912;SDS011;20200;52.084;5.224;2023-03-23T03:49:21;7.4;;;3.4;;
33912;SDS011;20200;52.084;5.224;2023-03-23T03:50:57;9.4;;;3.8;;
33912;SDS011;20200;52.084;5.224;2023-03-23T03:52:33;8.6;;;3.3;;
33912;SDS011;20200;52.084;5.224;2023-03-23T03:55:46;12.4;;;3.9;;
33912;SDS011;20200;52.084;5.224;2023-03-23T03:57:22;10.6;;;3.9;;
33912;SDS011;20200;52.084;5.224;2023-03-23T03:58:58;11.8;;;3.5;;
33912;SDS011;20200;52.084;5.224;2023-03-23T04:02:11;10.1;;;3.9;;
33912;SDS011;20200;52.084;5.224;2023-03-23T04:03:47;9.6;;;3.8;;
33912;SDS011;20200;52.084;5.224;2023-03-23T04:05:23;10.7;;;3.5;;
33912;SDS011;20200;52.084;5.224;2023-03-23T04:06:59;10.1;;;3.4;;
33912;SDS011;20200;52.084;5.224;2023-03-23T04:10:12;10.7;;;3.4;;
33912;SDS011;20200;52.084;5.224;2023-03-23T04:11:48;11.7;;;4.0;;
33912;SDS011;20200;52.084;5.224;2023-03-23T04:13:25;8.0;;;3.6;;
33912;SDS011;20200;52.084;5.224;2023-03-23T04:16:38;10.21;;;3.6;;
33912;SDS011;20200;52.084;5.224;2023-03-23T04:18:14;11.2;;;4.2;;
33912;SDS011;20200;52.084;5.224;2023-03-23T04:19:52;7.9;;;3.5;;
33912;SDS011;20200;52.084;5.224;2023-03-23T04:23:05;12.2;;;3.9;;
33912;SDS011;20200;52.084;5.224;2023-03-23T04:24:41;13.0;;;3.4;;
33912;SDS011;20200;52.084;5.224;2023-03-23T04:26:18;13.1;;;4.0;;
33912;SDS011;20200;52.084;5.224;2023-03-23T04:27:54;12.6;;;3.9;;
33912;SDS011;20200;52.084;5.224;2023-03-23T04:31:06;12.1;;;3.5;;
33912;SDS011;20200;52.084;5.224;2023-03-23T04:32:42;8.9;;;2.9;;
33912;SDS011;20200;52.084;5.224;2023-03-23T04:34:18;9.9;;;3.4;;
33912;SDS011;20200;52.084;5.224;2023-03-23T04:37:36;15.2;;;4.1;;
33912;SDS011;20200;52.084;5.224;2023-03-23T04:39:14;12.0;;;3.7;;
33912;SDS011;20200;52.084;5.224;2023-03-23T04:40:50;9.5;;;3.2;;
33912;SDS011;20200;52.084;5.224;2023-03-23T04:42:28;12.2;;;3.4;;
33912;SDS011;20200;52.084;5.224;2023-03-23T04:45:43;12.9;;;3.7;;
33912;SDS011;20200;52.084;5.224;2023-03-23T04:47:19;11.7;;;3.2;;
33912;SDS011;20200;52.084;5.224;2023-03-23T04:48:55;15.2;;;4.0;;
33912;SDS011;20200;52.084;5.224;2023-03-23T04:52:09;11.8;;;3.7;;
33912;SDS011;20200;52.084;5.224;2023-03-23T04:53:45;14.6;;;4.2;;
33912;SDS011;20200;52.084;5.224;2023-03-23T04:55:21;15.5;;;4.3;;
33912;SDS011;20200;52.084;5.224;2023-03-23T04:58:33;11.1;;;3.9;;
33912;SDS011;20200;52.084;5.224;2023-03-23T05:00:10;13.4;;;4.0;;
33912;SDS011;20200;52.084;5.224;2023-03-23T05:01:46;14.3;;;3.7;;
33912;SDS011;20200;52.084;5.224;2023-03-23T05:03:23;16.0;;;3.9;;
33912;SDS011;20200;52.084;5.224;2023-03-23T05:06:35;13.8;;;3.6;;
33912;SDS011;20200;52.084;5.224;2023-03-23T05:08:11;15.1;;;3.7;;
33912;SDS011;20200;52.084;5.224;2023-03-23T05:09:47;17.0;;;3.8;;
33912;SDS011;20200;52.084;5.224;2023-03-23T05:13:00;15.7;;;4.2;;
33912;SDS011;20200;52.084;5.224;2023-03-23T05:14:39;16.9;;;4.41;;
33912;SDS011;20200;52.084;5.224;2023-03-23T05:16:16;19.11;;;4.41;;
33912;SDS011;20200;52.084;5.224;2023-03-23T05:19:28;15.8;;;3.9;;
33912;SDS011;20200;52.084;5.224;2023-03-23T05:21:04;16.61;;;4.1;;
33912;SDS011;20200;52.084;5.224;2023-03-23T05:22:40;16.11;;;4.61;;
33912;SDS011;20200;52.084;5.224;2023-03-23T05:24:17;18.0;;;4.5;;
33912;SDS011;20200;52.084;5.224;2023-03-23T05:27:31;19.41;;;5.2;;
33912;SDS011;20200;52.084;5.224;2023-03-23T05:29:07;17.0;;;4.5;;
33912;SDS011;20200;52.084;5.224;2023-03-23T05:30:43;15.7;;;4.41;;
33912;SDS011;20200;52.084;5.224;2023-03-23T05:33:55;21.2;;;4.61;;
33912;SDS011;20200;52.084;5.224;2023-03-23T05:35:31;18.0;;;4.8;;
33912;SDS011;20200;52.084;5.224;2023-03-23T05:37:08;19.5;;;4.91;;
33912;SDS011;20200;52.084;5.224;2023-03-23T05:40:21;20.41;;;4.91;;
33912;SDS011;20200;52.084;5.224;2023-03-23T05:41:57;21.0;;;5.3;;
33912;SDS011;20200;52.084;5.224;2023-03-23T05:43:33;25.2;;;5.6;;
33912;SDS011;20200;52.084;5.224;2023-03-23T05:46:46;24.4;;;5.4;;
33912;SDS011;20200;52.084;5.224;2023-03-23T05:48:23;23.3;;;5.0;;
33912;SDS011;20200;52.084;5.224;2023-03-23T05:50:00;23.5;;;5.7;;
33912;SDS011;20200;52.084;5.224;2023-03-23T05:51:37;20.11;;;5.8;;
33912;SDS011;20200;52.084;5.224;2023-03-23T05:54:49;20.5;;;5.3;;
33912;SDS011;20200;52.084;5.224;2023-03-23T05:56:25;22.7;;;5.8;;
33912;SDS011;20200;52.084;5.224;2023-03-23T05:58:01;22.6;;;5.8;;
33912;SDS011;20200;52.084;5.224;2023-03-23T06:01:13;18.91;;;5.4;;
33912;SDS011;20200;52.084;5.224;2023-03-23T06:02:50;25.7;;;6.1;;
33912;SDS011;20200;52.084;5.224;2023-03-23T06:04:30;20.9;;;5.9;;
33912;SDS011;20200;52.084;5.224;2023-03-23T06:06:09;28.3;;;5.7;;
33912;SDS011;20200;52.084;5.224;2023-03-23T06:09:22;21.5;;;5.8;;
33912;SDS011;20200;52.084;5.224;2023-03-23T06:10:58;21.5;;;5.8;;
33912;SDS011;20200;52.084;5.224;2023-03-23T06:12:34;21.4;;;5.6;;
33912;SDS011;20200;52.084;5.224;2023-03-23T06:15:47;24.6;;;6.5;;
33912;SDS011;20200;52.084;5.224;2023-03-23T06:17:24;19.61;;;5.2;;
33912;SDS011;20200;52.084;5.224;2023-03-23T06:19:00;25.0;;;6.8;;
33912;SDS011;20200;52.084;5.224;2023-03-23T06:22:12;18.8;;;6.4;;
33912;SDS011;20200;52.084;5.224;2023-03-23T06:23:49;24.9;;;6.9;;
33912;SDS011;20200;52.084;5.224;2023-03-23T06:25:25;24.6;;;7.3;;
33912;SDS011;20200;52.084;5.224;2023-03-23T06:28:37;21.6;;;6.6;;
33912;SDS011;20200;52.084;5.224;2023-03-23T06:30:14;21.2;;;6.0;;
33912;SDS011;20200;52.084;5.224;2023-03-23T06:31:51;26.9;;;6.6;;
33912;SDS011;20200;52.084;5.224;2023-03-23T06:33:32;24.9;;;6.6;;
33912;SDS011;20200;52.084;5.224;2023-03-23T06:36:46;22.6;;;7.2;;
33912;SDS011;20200;52.084;5.224;2023-03-23T06:38:23;29.5;;;6.7;;
33912;SDS011;20200;52.084;5.224;2023-03-23T06:39:59;22.3;;;6.4;;
33912;SDS011;20200;52.084;5.224;2023-03-23T06:43:13;23.8;;;6.4;;
33912;SDS011;20200;52.084;5.224;2023-03-23T06:44:49;19.5;;;6.5;;
33912;SDS011;20200;52.084;5.224;2023-03-23T06:46:25;23.8;;;6.4;;
33912;SDS011;20200;52.084;5.224;2023-03-23T06:48:01;25.3;;;6.5;;
33912;SDS011;20200;52.084;5.224;2023-03-23T06:51:13;23.7;;;5.8;;
33912;SDS011;20200;52.084;5.224;2023-03-23T06:52:50;22.5;;;6.5;;
33912;SDS011;20200;52.084;5.224;2023-03-23T06:54:27;20.3;;;5.8;;
33912;SDS011;20200;52.084;5.224;2023-03-23T06:57:39;22.3;;;6.5;;
33912;SDS011;20200;52.084;5.224;2023-03-23T06:59:15;21.5;;;5.8;;
33912;SDS011;20200;52.084;5.224;2023-03-23T07:00:53;16.8;;;5.5;;
33912;SDS011;20200;52.084;5.224;2023-03-23T07:04:05;18.61;;;4.91;;
33912;SDS011;20200;52.084;5.224;2023-03-23T07:05:41;21.1;;;6.3;;
33912;SDS011;20200;52.084;5.224;2023-03-23T07:07:21;21.5;;;6.0;;
33912;SDS011;20200;52.084;5.224;2023-03-23T07:08:58;19.8;;;5.9;;
33912;SDS011;20200;52.084;5.224;2023-03-23T07:12:10;20.5;;;5.8;;
33912;SDS011;20200;52.084;5.224;2023-03-23T07:13:46;22.7;;;6.3;;
33912;SDS011;20200;52.084;5.224;2023-03-23T07:15:22;25.0;;;6.6;;
33912;SDS011;20200;52.084;5.224;2023-03-23T07:18:34;24.6;;;6.3;;
33912;SDS011;20200;52.084;5.224;2023-03-23T07:20:11;26.8;;;6.3;;
33912;SDS011;20200;52.084;5.224;2023-03-23T07:21:48;24.5;;;5.7;;
33912;SDS011;20200;52.084;5.224;2023-03-23T07:25:00;21.8;;;5.7;;
33912;SDS011;20200;52.084;5.224;2023-03-23T07:26:36;21.1;;;5.2;;
33912;SDS011;20200;52.084;5.224;2023-03-23T07:28:12;23.8;;;5.9;;
33912;SDS011;20200;52.084;5.224;2023-03-23T07:29:48;25.7;;;6.1;;
33912;SDS011;20200;52.084;5.224;2023-03-23T07:33:03;23.5;;;5.9;;
33912;SDS011;20200;52.084;5.224;2023-03-23T07:34:41;19.11;;;5.7;;
33912;SDS011;20200;52.084;5.224;2023-03-23T07:36:17;20.7;;;5.7;;
33912;SDS011;20200;52.084;5.224;2023-03-23T07:39:29;22.8;;;5.4;;
33912;SDS011;20200;52.084;5.224;2023-03-23T07:41:06;22.0;;;5.9;;
33912;SDS011;20200;52.084;5.224;2023-03-23T07:42:43;22.7;;;5.4;;
33912;SDS011;20200;52.084;5.224;2023-03-23T07:45:58;20.7;;;5.5;;
33912;SDS011;20200;52.084;5.224;2023-03-23T07:47:34;25.1;;;6.1;;
33912;SDS011;20200;52.084;5.224;2023-03-23T07:49:10;20.5;;;5.2;;
33912;SDS011;20200;52.084;5.224;2023-03-23T07:50:46;20.0;;;5.4;;
33912;SDS011;20200;52.084;5.224;2023-03-23T07:53:59;19.11;;;4.91;;
33912;SDS011;20200;52.084;5.224;2023-03-23T07:55:35;19.8;;;5.6;;
33912;SDS011;20200;52.084;5.224;2023-03-23T07:57:11;18.5;;;5.2;;
33912;SDS011;20200;52.084;5.224;2023-03-23T08:00:24;20.9;;;5.7;;
33912;SDS011;20200;52.084;5.224;2023-03-23T08:02:01;18.5;;;4.8;;
33912;SDS011;20200;52.084;5.224;2023-03-23T08:03:38;15.9;;;5.3;;
33912;SDS011;20200;52.084;5.224;2023-03-23T08:06:51;18.5;;;5.9;;
33912;SDS011;20200;52.084;5.224;2023-03-23T08:08:27;17.8;;;5.4;;
33912;SDS011;20200;52.084;5.224;2023-03-23T08:10:03;17.41;;;5.3;;
33912;SDS011;20200;52.084;5.224;2023-03-23T08:11:40;15.8;;;5.11;;
33912;SDS011;20200;52.084;5.224;2023-03-23T08:14:53;15.4;;;5.0;;
33912;SDS011;20200;52.084;5.224;2023-03-23T08:16:30;19.7;;;5.5;;
33912;SDS011;20200;52.084;5.224;2023-03-23T08:18:06;15.0;;;5.11;;
33912;SDS011;20200;52.084;5.224;2023-03-23T08:21:19;21.2;;;5.8;;
33912;SDS011;20200;52.084;5.224;2023-03-23T08:22:55;14.3;;;4.91;;
33912;SDS011;20200;52.084;5.224;2023-03-23T08:24:33;16.9;;;5.4;;
33912;SDS011;20200;52.084;5.224;2023-03-23T08:27:46;16.5;;;5.2;;
33912;SDS011;20200;52.084;5.224;2023-03-23T08:29:23;19.7;;;5.7;;
33912;SDS011;20200;52.084;5.224;2023-03-23T08:30:59;16.9;;;5.11;;
33912;SDS011;20200;52.084;5.224;2023-03-23T08:32:36;16.5;;;5.11;;
33912;SDS011;20200;52.084;5.224;2023-03-23T08:35:54;18.91;;;5.2;;
33912;SDS011;20200;52.084;5.224;2023-03-23T08:37:31;21.8;;;5.8;;
33912;SDS011;20200;52.084;5.224;2023-03-23T08:39:08;20.0;;;6.0;;
33912;SDS011;20200;52.084;5.224;2023-03-23T08:42:20;16.9;;;5.5;;
33912;SDS011;20200;52.084;5.224;2023-03-23T08:43:56;19.61;;;5.5;;
33912;SDS011;20200;52.084;5.224;2023-03-23T08:45:32;18.61;;;5.11;;
33912;SDS011;20200;52.084;5.224;2023-03-23T08:48:44;16.9;;;5.11;;
33912;SDS011;20200;52.084;5.224;2023-03-23T08:50:22;20.2;;;5.9;;
33912;SDS011;20200;52.084;5.224;2023-03-23T08:52:01;20.2;;;6.2;;
33912;SDS011;20200;52.084;5.224;2023-03-23T08:53:38;23.0;;;5.8;;
33912;SDS011;20200;52.084;5.224;2023-03-23T08:56:52;21.5;;;5.9;;
33912;SDS011;20200;52.084;5.224;2023-03-23T08:58:28;21.5;;;5.9;;
33912;SDS011;20200;52.084;5.224;2023-03-23T09:00:07;17.8;;;5.3;;
33912;SDS011;20200;52.084;5.224;2023-03-23T09:03:21;21.5;;;5.7;;
33912;SDS011;20200;52.084;5.224;2023-03-23T09:04:57;19.61;;;6.3;;
33912;SDS011;20200;52.084;5.224;2023-03-23T09:06:34;19.91;;;5.7;;
33912;SDS011;20200;52.084;5.224;2023-03-23T09:08:10;18.91;;;5.6;;
33912;SDS011;20200;52.084;5.224;2023-03-23T09:11:23;24.4;;;6.5;;
33912;SDS011;20200;52.084;5.224;2023-03-23T09:12:59;22.2;;;6.1;;
33912;SDS011;20200;52.084;5.224;2023-03-23T09:14:35;19.7;;;5.6;;
33912;SDS011;20200;52.084;5.224;2023-03-23T09:17:50;22.2;;;5.9;;
33912;SDS011;20200;52.084;5.224;2023-03-23T09:19:28;19.5;;;5.5;;
33912;SDS011;20200;52.084;5.224;2023-03-23T09:21:04;22.8;;;5.7;;
33912;SDS011;20200;52.084;5.224;2023-03-23T09:24:21;23.2;;;5.3;;
33912;SDS011;20200;52.084;5.224;2023-03-23T09:25:59;18.61;;;5.11;;
33912;SDS011;20200;52.084;5.224;2023-03-23T09:27:37;22.8;;;5.7;;
33912;SDS011;20200;52.084;5.224;2023-03-23T09:29:14;18.41;;;4.8;;
33912;SDS011;20200;52.084;5.224;2023-03-23T09:32:26;20.9;;;5.8;;
33912;SDS011;20200;52.084;5.224;2023-03-23T09:34:02;23.8;;;6.0;;
33912;SDS011;20200;52.084;5.224;2023-03-23T09:35:38;20.11;;;5.7;;
33912;SDS011;20200;52.084;5.224;2023-03-23T09:38:51;23.2;;;6.3;;
33912;SDS011;20200;52.084;5.224;2023-03-23T09:40:30;20.9;;;5.7;;
33912;SDS011;20200;52.084;5.224;2023-03-23T09:42:22;23.0;;;5.9;;
33912;SDS011;20200;52.084;5.224;2023-03-23T09:44:14;19.5;;;5.4;;
33912;SDS011;20200;52.084;5.224;2023-03-23T09:46:02;24.3;;;5.8;;
33912;SDS011;20200;52.084;5.224;2023-03-23T09:48:03;25.3;;;5.7;;
33912;SDS011;20200;52.084;5.224;2023-03-23T09:50:09;21.6;;;5.3;;
33912;SDS011;20200;52.084;5.224;2023-03-23T09:53:30;19.91;;;5.0;;
33912;SDS011;20200;52.084;5.224;2023-03-23T09:55:13;21.4;;;6.0;;
33912;SDS011;20200;52.084;5.224;2023-03-23T09:56:53;23.2;;;5.9;;
33912;SDS011;20200;52.084;5.224;2023-03-23T09:58:33;19.91;;;5.5;;
33912;SDS011;20200;52.084;5.224;2023-03-23T10:02:02;21.2;;;5.4;;
33912;SDS011;20200;52.084;5.224;2023-03-23T10:03:58;20.6;;;5.0;;
33912;SDS011;20200;52.084;5.224;2023-03-23T10:05:52;23.0;;;5.4;;
33912;SDS011;20200;52.084;5.224;2023-03-23T10:07:29;19.0;;;5.3;;
33912;SDS011;20200;52.084;5.224;2023-03-23T10:09:06;19.2;;;4.91;;
33912;SDS011;20200;52.084;5.224;2023-03-23T10:12:39;22.5;;;5.3;;
33912;SDS011;20200;52.084;5.224;2023-03-23T10:14:27;20.0;;;4.91;;
33912;SDS011;20200;52.084;5.224;2023-03-23T10:16:17;23.4;;;5.4;;
33912;SDS011;20200;52.084;5.224;2023-03-23T10:18:04;22.8;;;5.7;;
33912;SDS011;20200;52.084;5.224;2023-03-23T10:19:51;19.91;;;5.11;;
33912;SDS011;20200;52.084;5.224;2023-03-23T10:21:51;21.2;;;4.91;;
33912;SDS011;20200;52.084;5.224;2023-03-23T10:23:40;24.1;;;5.8;;
33912;SDS011;20200;52.084;5.224;2023-03-23T10:27:12;21.5;;;5.7;;
33912;SDS011;20200;52.084;5.224;2023-03-23T10:28:56;22.1;;;5.5;;
33912;SDS011;20200;52.084;5.224;2023-03-23T10:30:37;19.8;;;5.0;;
33912;SDS011;20200;52.084;5.224;2023-03-23T10:32:17;21.0;;;5.5;;
33912;SDS011;20200;52.084;5.224;2023-03-23T10:33:58;23.0;;;5.5;;
33912;SDS011;20200;52.084;5.224;2023-03-23T10:37:34;18.91;;;5.0;;
33912;SDS011;20200;52.084;5.224;2023-03-23T10:39:16;24.9;;;6.4;;
33912;SDS011;20200;52.084;5.224;2023-03-23T10:40:57;24.0;;;5.6;;
33912;SDS011;20200;52.084;5.224;2023-03-23T10:42:41;21.0;;;5.6;;
33912;SDS011;20200;52.084;5.224;2023-03-23T10:45:59;25.1;;;5.5;;
33912;SDS011;20200;52.084;5.224;2023-03-23T10:47:48;20.8;;;5.5;;
33912;SDS011;20200;52.084;5.224;2023-03-23T10:49:33;23.4;;;5.2;;
33912;SDS011;20200;52.084;5.224;2023-03-23T10:51:14;23.7;;;6.1;;
33912;SDS011;20200;52.084;5.224;2023-03-23T10:52:54;20.11;;;5.11;;
33912;SDS011;20200;52.084;5.224;2023-03-23T10:56:22;19.91;;;4.8;;
33912;SDS011;20200;52.084;5.224;2023-03-23T10:58:02;22.9;;;5.7;;
33912;SDS011;20200;52.084;5.224;2023-03-23T10:59:41;20.41;;;5.2;;
33912;SDS011;20200;52.084;5.224;2023-03-23T11:01:18;20.9;;;5.4;;
33912;SDS011;20200;52.084;5.224;2023-03-23T11:04:37;27.0;;;6.0;;
33912;SDS011;20200;52.084;5.224;2023-03-23T11:06:18;20.41;;;5.4;;
33912;SDS011;20200;52.084;5.224;2023-03-23T11:07:57;24.7;;;6.0;;
33912;SDS011;20200;52.084;5.224;2023-03-23T11:09:36;25.7;;;5.5;;
33912;SDS011;20200;52.084;5.224;2023-03-23T11:12:56;25.7;;;5.5;;
33912;SDS011;20200;52.084;5.224;2023-03-23T11:14:34;22.7;;;5.4;;
33912;SDS011;20200;52.084;5.224;2023-03-23T11:16:21;20.41;;;5.6;;
33912;SDS011;20200;52.084;5.224;2023-03-23T11:18:01;20.5;;;5.8;;
33912;SDS011;20200;52.084;5.224;2023-03-23T11:21:15;19.11;;;5.2;;
33912;SDS011;20200;52.084;5.224;2023-03-23T11:22:52;24.3;;;5.5;;
33912;SDS011;20200;52.084;5.224;2023-03-23T11:24:29;17.41;;;4.7;;
33912;SDS011;20200;52.084;5.224;2023-03-23T11:27:50;21.9;;;5.0;;
33912;SDS011;20200;52.084;5.224;2023-03-23T11:29:26;20.6;;;5.2;;
33912;SDS011;20200;52.084;5.224;2023-03-23T11:31:05;20.2;;;5.11;;
33912;SDS011;20200;52.084;5.224;2023-03-23T11:32:43;18.2;;;4.7;;
33912;SDS011;20200;52.084;5.224;2023-03-23T11:35:59;19.8;;;4.8;;
33912;SDS011;20200;52.084;5.224;2023-03-23T11:37:41;21.0;;;4.91;;
33912;SDS011;20200;52.084;5.224;2023-03-23T11:39:21;21.2;;;5.7;;
33912;SDS011;20200;52.084;5.224;2023-03-23T11:40:59;20.5;;;4.61;;
33912;SDS011;20200;52.084;5.224;2023-03-23T11:44:21;23.3;;;5.2;;
33912;SDS011;20200;52.084;5.224;2023-03-23T11:46:02;18.3;;;4.8;;
33912;SDS011;20200;52.084;5.224;2023-03-23T11:47:51;20.3;;;4.7;;
33912;SDS011;20200;52.084;5.224;2023-03-23T11:49:37;16.3;;;4.61;;
33912;SDS011;20200;52.084;5.224;2023-03-23T11:51:23;18.41;;;5.0;;
33912;SDS011;20200;52.084;5.224;2023-03-23T11:54:57;23.4;;;5.7;;
33912;SDS011;20200;52.084;5.224;2023-03-23T11:56:41;22.3;;;5.6;;
33912;SDS011;20200;52.084;5.224;2023-03-23T11:58:19;25.9;;;6.3;;
33912;SDS011;20200;52.084;5.224;2023-03-23T11:59:56;22.4;;;5.3;;
33912;SDS011;20200;52.084;5.224;2023-03-23T12:03:34;24.5;;;5.7;;
33912;SDS011;20200;52.084;5.224;2023-03-23T12:05:34;22.4;;;5.7;;
33912;SDS011;20200;52.084;5.224;2023-03-23T12:07:24;23.0;;;5.7;;
33912;SDS011;20200;52.084;5.224;2023-03-23T12:09:21;21.4;;;5.2;;
33912;SDS011;20200;52.084;5.224;2023-03-23T12:11:14;24.0;;;5.7;;
33912;SDS011;20200;52.084;5.224;2023-03-23T12:13:02;23.3;;;5.8;;
33912;SDS011;20200;52.084;5.224;2023-03-23T12:14:53;21.5;;;5.5;;
33912;SDS011;20200;52.084;5.224;2023-03-23T12:16:41;23.8;;;5.5;;
33912;SDS011;20200;52.084;5.224;2023-03-23T12:18:37;20.3;;;5.11;;
33912;SDS011;20200;52.084;5.224;2023-03-23T12:22:20;23.9;;;5.3;;
33912;SDS011;20200;52.084;5.224;2023-03-23T12:24:21;19.7;;;5.0;;
33912;SDS011;20200;52.084;5.224;2023-03-23T12:26:15;18.7;;;5.0;;
33912;SDS011;20200;52.084;5.224;2023-03-23T12:27:58;20.9;;;5.5;;
33912;SDS011;20200;52.084;5.224;2023-03-23T12:29:46;21.5;;;5.0;;
33912;SDS011;20200;52.084;5.224;2023-03-23T12:31:40;18.8;;;5.11;;
33912;SDS011;20200;52.084;5.224;2023-03-23T12:33:27;20.0;;;5.3;;
33912;SDS011;20200;52.084;5.224;2023-03-23T12:35:22;19.0;;;4.7;;
33912;SDS011;20200;52.084;5.224;2023-03-23T12:39:26;17.61;;;5.11;;
33912;SDS011;20200;52.084;5.224;2023-03-23T12:41:20;18.8;;;4.2;;
33912;SDS011;20200;52.084;5.224;2023-03-23T12:43:04;17.3;;;4.91;;
33912;SDS011;20200;52.084;5.224;2023-03-23T12:44:55;16.9;;;4.61;;
33912;SDS011;20200;52.084;5.224;2023-03-23T12:47:00;17.5;;;4.7;;
33912;SDS011;20200;52.084;5.224;2023-03-23T12:49:29;16.5;;;4.7;;
33912;SDS011;20200;52.084;5.224;2023-03-23T12:51:13;18.11;;;4.7;;